aviador You're here:

KHSE Decoded Metar

HATTERAS/MITCHEL in NC, USA
Report Time2017-04-29 16:51:00
UTC Time2017-04-29 17:45:56
Flight Rules mvfr MVFR
Wind220° at 11 Gusting to 18 kt
W.Decomp.*RWY 25: 10.3 kt HW 3.8 kt LCW
W.Rank220° ranks 6
Current wind is above 220° avg. (8.5)
Visibility4828 m
Phenomena:Haze
Clouds:N/A
Expected CloudBase > 2,000 ft AGL from Temp-Dew spread
CeilingNone
Temp27°C (ISA +12)
Dew Point22°C (74% RH)
Heat Index29.2°C
QNH1023 hPa
Density Alt1,407 ft
Elevation10 ft
Report Wrong Elevation
Raw Report
METAR KHSE 291651Z AUTO 22011G18KT 3SM HZ CLR 27/22 A3021 RMK AO2 SLP230
T02670222 TSNO=

Extra information for KHSE:More info

Metar Taf Metar & Taf Last 4 Metars F.Rules Stats Wind Profile Meteogram Temp Stats Airport Information Weather charts Add Link Nearby VenuesMetar ALERT Operation Metar Decoded Social comments

AIRNAV info for KHSE